sensor_id;sensor_type;location;lat;lon;timestamp;P1;durP1;ratioP1;P2;durP2;ratioP2
69588;SDS011;56792;50.644;17.984;2022-10-16T00:00:45;23.10;;;14.20;;
69588;SDS011;56792;50.644;17.984;2022-10-16T00:03:17;21.90;;;12.80;;
69588;SDS011;56792;50.644;17.984;2022-10-16T00:05:49;24.10;;;13.50;;
69588;SDS011;56792;50.644;17.984;2022-10-16T00:08:22;21.40;;;12.50;;
69588;SDS011;56792;50.644;17.984;2022-10-16T00:10:57;23.30;;;14.20;;
69588;SDS011;56792;50.644;17.984;2022-10-16T00:13:31;23.50;;;13.30;;
69588;SDS011;56792;50.644;17.984;2022-10-16T00:16:05;24.30;;;12.40;;
69588;SDS011;56792;50.644;17.984;2022-10-16T00:18:38;21.70;;;12.60;;
69588;SDS011;56792;50.644;17.984;2022-10-16T00:21:12;24.40;;;14.10;;
69588;SDS011;56792;50.644;17.984;2022-10-16T00:23:46;23.40;;;13.50;;
69588;SDS011;56792;50.644;17.984;2022-10-16T00:26:20;25.70;;;14.00;;
69588;SDS011;56792;50.644;17.984;2022-10-16T00:28:53;21.80;;;13.50;;
69588;SDS011;56792;50.644;17.984;2022-10-16T00:31:25;24.40;;;14.50;;
69588;SDS011;56792;50.644;17.984;2022-10-16T00:33:58;24.10;;;14.10;;
69588;SDS011;56792;50.644;17.984;2022-10-16T00:36:30;24.20;;;14.20;;
69588;SDS011;56792;50.644;17.984;2022-10-16T00:39:02;23.70;;;13.20;;
69588;SDS011;56792;50.644;17.984;2022-10-16T00:41:34;22.70;;;13.60;;
69588;SDS011;56792;50.644;17.984;2022-10-16T00:47:19;26.90;;;14.70;;
69588;SDS011;56792;50.644;17.984;2022-10-16T00:49:57;23.90;;;15.10;;
69588;SDS011;56792;50.644;17.984;2022-10-16T00:52:34;26.00;;;14.20;;
69588;SDS011;56792;50.644;17.984;2022-10-16T00:55:10;25.60;;;14.80;;
69588;SDS011;56792;50.644;17.984;2022-10-16T00:57:43;25.30;;;13.60;;
69588;SDS011;56792;50.644;17.984;2022-10-16T01:00:20;25.50;;;13.40;;
69588;SDS011;56792;50.644;17.984;2022-10-16T01:02:57;25.90;;;15.70;;
69588;SDS011;56792;50.644;17.984;2022-10-16T01:05:39;25.60;;;14.40;;
69588;SDS011;56792;50.644;17.984;2022-10-16T01:08:21;25.50;;;14.70;;
69588;SDS011;56792;50.644;17.984;2022-10-16T01:11:09;25.90;;;14.60;;
69588;SDS011;56792;50.644;17.984;2022-10-16T01:13:52;32.20;;;16.60;;
69588;SDS011;56792;50.644;17.984;2022-10-16T01:16:32;25.10;;;14.10;;
69588;SDS011;56792;50.644;17.984;2022-10-16T01:19:15;26.20;;;15.20;;
69588;SDS011;56792;50.644;17.984;2022-10-16T01:21:56;27.00;;;15.70;;
69588;SDS011;56792;50.644;17.984;2022-10-16T01:24:37;25.20;;;15.50;;
69588;SDS011;56792;50.644;17.984;2022-10-16T01:27:13;25.10;;;14.90;;
69588;SDS011;56792;50.644;17.984;2022-10-16T01:29:52;29.00;;;14.70;;
69588;SDS011;56792;50.644;17.984;2022-10-16T01:32:33;25.60;;;14.60;;
69588;SDS011;56792;50.644;17.984;2022-10-16T01:35:14;25.10;;;13.50;;
69588;SDS011;56792;50.644;17.984;2022-10-16T01:37:56;27.70;;;14.70;;
69588;SDS011;56792;50.644;17.984;2022-10-16T01:40:34;23.60;;;14.30;;
69588;SDS011;56792;50.644;17.984;2022-10-16T01:43:11;27.40;;;15.10;;
69588;SDS011;56792;50.644;17.984;2022-10-16T01:45:46;25.70;;;15.00;;
69588;SDS011;56792;50.644;17.984;2022-10-16T01:48:20;25.20;;;14.20;;
69588;SDS011;56792;50.644;17.984;2022-10-16T01:50:58;23.60;;;14.80;;
69588;SDS011;56792;50.644;17.984;2022-10-16T01:53:35;25.00;;;15.10;;
69588;SDS011;56792;50.644;17.984;2022-10-16T01:56:10;27.00;;;15.40;;
69588;SDS011;56792;50.644;17.984;2022-10-16T01:58:48;26.20;;;14.70;;
69588;SDS011;56792;50.644;17.984;2022-10-16T02:01:24;23.10;;;14.20;;
69588;SDS011;56792;50.644;17.984;2022-10-16T02:04:04;26.50;;;15.90;;
69588;SDS011;56792;50.644;17.984;2022-10-16T02:06:40;24.60;;;14.50;;
69588;SDS011;56792;50.644;17.984;2022-10-16T02:09:12;27.60;;;14.60;;
69588;SDS011;56792;50.644;17.984;2022-10-16T02:11:45;25.80;;;15.00;;
69588;SDS011;56792;50.644;17.984;2022-10-16T02:14:19;24.20;;;14.40;;
69588;SDS011;56792;50.644;17.984;2022-10-16T02:16:53;22.90;;;14.10;;
69588;SDS011;56792;50.644;17.984;2022-10-16T02:19:25;26.80;;;14.70;;
69588;SDS011;56792;50.644;17.984;2022-10-16T02:22:00;23.60;;;13.40;;
69588;SDS011;56792;50.644;17.984;2022-10-16T02:24:42;22.20;;;13.70;;
69588;SDS011;56792;50.644;17.984;2022-10-16T02:27:23;21.40;;;12.00;;
69588;SDS011;56792;50.644;17.984;2022-10-16T02:30:03;20.60;;;12.80;;
69588;SDS011;56792;50.644;17.984;2022-10-16T02:32:41;21.10;;;12.50;;
69588;SDS011;56792;50.644;17.984;2022-10-16T02:35:17;20.10;;;13.20;;
69588;SDS011;56792;50.644;17.984;2022-10-16T02:37:51;21.10;;;13.20;;
69588;SDS011;56792;50.644;17.984;2022-10-16T02:40:26;20.50;;;12.10;;
69588;SDS011;56792;50.644;17.984;2022-10-16T02:42:58;21.30;;;13.50;;
69588;SDS011;56792;50.644;17.984;2022-10-16T02:45:33;23.10;;;13.40;;
69588;SDS011;56792;50.644;17.984;2022-10-16T02:48:05;24.80;;;14.50;;
69588;SDS011;56792;50.644;17.984;2022-10-16T02:50:38;21.30;;;12.70;;
69588;SDS011;56792;50.644;17.984;2022-10-16T02:53:09;21.30;;;12.50;;
69588;SDS011;56792;50.644;17.984;2022-10-16T02:55:41;21.70;;;13.50;;
69588;SDS011;56792;50.644;17.984;2022-10-16T02:58:13;22.00;;;13.50;;
69588;SDS011;56792;50.644;17.984;2022-10-16T03:00:45;22.20;;;13.60;;
69588;SDS011;56792;50.644;17.984;2022-10-16T03:03:17;21.70;;;12.70;;
69588;SDS011;56792;50.644;17.984;2022-10-16T03:05:49;21.30;;;13.30;;
69588;SDS011;56792;50.644;17.984;2022-10-16T03:08:21;22.10;;;12.70;;
69588;SDS011;56792;50.644;17.984;2022-10-16T03:10:53;20.70;;;13.10;;
69588;SDS011;56792;50.644;17.984;2022-10-16T03:13:25;16.90;;;10.80;;
69588;SDS011;56792;50.644;17.984;2022-10-16T03:15:57;20.90;;;12.70;;
69588;SDS011;56792;50.644;17.984;2022-10-16T03:18:29;20.30;;;12.20;;
69588;SDS011;56792;50.644;17.984;2022-10-16T03:21:01;18.20;;;11.60;;
69588;SDS011;56792;50.644;17.984;2022-10-16T03:23:33;20.50;;;12.80;;
69588;SDS011;56792;50.644;17.984;2022-10-16T03:26:05;21.40;;;13.30;;
69588;SDS011;56792;50.644;17.984;2022-10-16T03:28:37;22.10;;;13.60;;
69588;SDS011;56792;50.644;17.984;2022-10-16T03:31:09;20.00;;;12.80;;
69588;SDS011;56792;50.644;17.984;2022-10-16T03:33:41;20.10;;;12.50;;
69588;SDS011;56792;50.644;17.984;2022-10-16T03:36:12;19.30;;;12.40;;
69588;SDS011;56792;50.644;17.984;2022-10-16T03:38:44;20.90;;;12.70;;
69588;SDS011;56792;50.644;17.984;2022-10-16T03:41:16;22.50;;;13.20;;
69588;SDS011;56792;50.644;17.984;2022-10-16T03:43:49;21.00;;;12.70;;
69588;SDS011;56792;50.644;17.984;2022-10-16T03:46:20;20.10;;;12.00;;
69588;SDS011;56792;50.644;17.984;2022-10-16T03:48:52;22.20;;;13.70;;
69588;SDS011;56792;50.644;17.984;2022-10-16T03:51:24;20.80;;;13.60;;
69588;SDS011;56792;50.644;17.984;2022-10-16T03:53:56;22.20;;;13.30;;
69588;SDS011;56792;50.644;17.984;2022-10-16T03:56:28;19.40;;;11.70;;
69588;SDS011;56792;50.644;17.984;2022-10-16T03:59:00;23.00;;;13.80;;
69588;SDS011;56792;50.644;17.984;2022-10-16T04:01:32;24.60;;;14.60;;
69588;SDS011;56792;50.644;17.984;2022-10-16T04:04:04;25.20;;;15.20;;
69588;SDS011;56792;50.644;17.984;2022-10-16T04:06:36;27.20;;;15.30;;
69588;SDS011;56792;50.644;17.984;2022-10-16T04:09:08;23.00;;;13.70;;
69588;SDS011;56792;50.644;17.984;2022-10-16T04:11:40;28.00;;;15.90;;
69588;SDS011;56792;50.644;17.984;2022-10-16T04:14:13;27.30;;;15.80;;
69588;SDS011;56792;50.644;17.984;2022-10-16T04:16:46;26.30;;;15.60;;
69588;SDS011;56792;50.644;17.984;2022-10-16T04:19:18;27.70;;;15.90;;
69588;SDS011;56792;50.644;17.984;2022-10-16T04:21:50;26.80;;;14.90;;
69588;SDS011;56792;50.644;17.984;2022-10-16T04:24:21;28.00;;;16.00;;
69588;SDS011;56792;50.644;17.984;2022-10-16T04:26:53;27.50;;;15.90;;
69588;SDS011;56792;50.644;17.984;2022-10-16T04:29:26;25.80;;;15.90;;
69588;SDS011;56792;50.644;17.984;2022-10-16T04:31:58;29.10;;;15.80;;
69588;SDS011;56792;50.644;17.984;2022-10-16T04:34:29;24.30;;;14.50;;
69588;SDS011;56792;50.644;17.984;2022-10-16T04:37:01;25.60;;;14.80;;
69588;SDS011;56792;50.644;17.984;2022-10-16T04:39:33;22.30;;;13.50;;
69588;SDS011;56792;50.644;17.984;2022-10-16T04:42:05;23.20;;;15.70;;
69588;SDS011;56792;50.644;17.984;2022-10-16T04:44:37;25.70;;;15.40;;
69588;SDS011;56792;50.644;17.984;2022-10-16T04:47:09;26.00;;;15.50;;
69588;SDS011;56792;50.644;17.984;2022-10-16T04:49:41;21.20;;;13.40;;
69588;SDS011;56792;50.644;17.984;2022-10-16T04:52:13;25.30;;;15.10;;
69588;SDS011;56792;50.644;17.984;2022-10-16T04:54:45;24.80;;;15.10;;
69588;SDS011;56792;50.644;17.984;2022-10-16T04:57:19;25.60;;;15.30;;
69588;SDS011;56792;50.644;17.984;2022-10-16T04:59:51;27.60;;;16.70;;
69588;SDS011;56792;50.644;17.984;2022-10-16T05:02:23;26.80;;;16.70;;
69588;SDS011;56792;50.644;17.984;2022-10-16T05:04:55;28.10;;;15.40;;
69588;SDS011;56792;50.644;17.984;2022-10-16T05:07:27;26.30;;;16.40;;
69588;SDS011;56792;50.644;17.984;2022-10-16T05:09:59;29.30;;;17.20;;
69588;SDS011;56792;50.644;17.984;2022-10-16T05:12:32;29.10;;;17.00;;
69588;SDS011;56792;50.644;17.984;2022-10-16T05:15:06;28.30;;;16.10;;
69588;SDS011;56792;50.644;17.984;2022-10-16T05:17:39;27.00;;;15.80;;
69588;SDS011;56792;50.644;17.984;2022-10-16T05:20:12;27.30;;;16.70;;
69588;SDS011;56792;50.644;17.984;2022-10-16T05:22:44;25.80;;;14.70;;
69588;SDS011;56792;50.644;17.984;2022-10-16T05:25:16;25.30;;;16.00;;
69588;SDS011;56792;50.644;17.984;2022-10-16T05:27:50;26.40;;;16.00;;
69588;SDS011;56792;50.644;17.984;2022-10-16T05:30:22;26.70;;;16.70;;
69588;SDS011;56792;50.644;17.984;2022-10-16T05:32:54;27.00;;;15.50;;
69588;SDS011;56792;50.644;17.984;2022-10-16T05:35:26;24.30;;;14.50;;
69588;SDS011;56792;50.644;17.984;2022-10-16T05:37:58;24.00;;;14.90;;
69588;SDS011;56792;50.644;17.984;2022-10-16T05:40:30;26.30;;;14.60;;
69588;SDS011;56792;50.644;17.984;2022-10-16T05:43:02;24.20;;;15.30;;
69588;SDS011;56792;50.644;17.984;2022-10-16T05:45:34;24.80;;;15.60;;
69588;SDS011;56792;50.644;17.984;2022-10-16T05:48:06;22.60;;;14.80;;
69588;SDS011;56792;50.644;17.984;2022-10-16T05:50:39;24.50;;;15.40;;
69588;SDS011;56792;50.644;17.984;2022-10-16T05:53:11;23.00;;;14.60;;
69588;SDS011;56792;50.644;17.984;2022-10-16T05:55:43;25.90;;;15.70;;
69588;SDS011;56792;50.644;17.984;2022-10-16T05:58:21;23.80;;;14.70;;
69588;SDS011;56792;50.644;17.984;2022-10-16T06:00:58;28.60;;;17.00;;
69588;SDS011;56792;50.644;17.984;2022-10-16T06:03:33;28.40;;;17.70;;
69588;SDS011;56792;50.644;17.984;2022-10-16T06:06:11;25.70;;;16.30;;
69588;SDS011;56792;50.644;17.984;2022-10-16T06:08:45;30.20;;;16.10;;
69588;SDS011;56792;50.644;17.984;2022-10-16T06:11:20;23.70;;;14.50;;
69588;SDS011;56792;50.644;17.984;2022-10-16T06:13:55;27.80;;;15.80;;
69588;SDS011;56792;50.644;17.984;2022-10-16T06:16:29;25.50;;;15.90;;
69588;SDS011;56792;50.644;17.984;2022-10-16T06:19:01;25.30;;;16.70;;
69588;SDS011;56792;50.644;17.984;2022-10-16T06:21:34;28.90;;;16.60;;
69588;SDS011;56792;50.644;17.984;2022-10-16T06:24:06;25.70;;;15.50;;
69588;SDS011;56792;50.644;17.984;2022-10-16T06:26:39;27.40;;;16.30;;
69588;SDS011;56792;50.644;17.984;2022-10-16T06:29:11;28.60;;;16.30;;
69588;SDS011;56792;50.644;17.984;2022-10-16T06:31:43;26.40;;;15.70;;
69588;SDS011;56792;50.644;17.984;2022-10-16T06:34:16;23.60;;;15.10;;
69588;SDS011;56792;50.644;17.984;2022-10-16T06:36:48;25.60;;;16.30;;
69588;SDS011;56792;50.644;17.984;2022-10-16T06:39:20;24.10;;;14.30;;
69588;SDS011;56792;50.644;17.984;2022-10-16T06:41:52;21.40;;;14.30;;
69588;SDS011;56792;50.644;17.984;2022-10-16T06:44:27;23.90;;;14.50;;
69588;SDS011;56792;50.644;17.984;2022-10-16T06:46:59;20.20;;;13.70;;
69588;SDS011;56792;50.644;17.984;2022-10-16T06:49:32;26.30;;;16.00;;
69588;SDS011;56792;50.644;17.984;2022-10-16T06:52:04;22.60;;;14.30;;
69588;SDS011;56792;50.644;17.984;2022-10-16T06:54:36;21.80;;;14.70;;
69588;SDS011;56792;50.644;17.984;2022-10-16T06:57:09;23.60;;;13.80;;
69588;SDS011;56792;50.644;17.984;2022-10-16T06:59:41;24.90;;;16.80;;
69588;SDS011;56792;50.644;17.984;2022-10-16T07:02:14;22.70;;;14.70;;
69588;SDS011;56792;50.644;17.984;2022-10-16T07:04:46;21.80;;;14.50;;
69588;SDS011;56792;50.644;17.984;2022-10-16T07:07:19;22.60;;;14.40;;
69588;SDS011;56792;50.644;17.984;2022-10-16T07:09:53;20.90;;;13.20;;
69588;SDS011;56792;50.644;17.984;2022-10-16T07:12:25;20.60;;;13.80;;
69588;SDS011;56792;50.644;17.984;2022-10-16T07:14:59;23.20;;;14.90;;
69588;SDS011;56792;50.644;17.984;2022-10-16T07:17:32;20.40;;;13.30;;
69588;SDS011;56792;50.644;17.984;2022-10-16T07:20:06;21.40;;;14.70;;
69588;SDS011;56792;50.644;17.984;2022-10-16T07:22:39;21.90;;;13.10;;
69588;SDS011;56792;50.644;17.984;2022-10-16T07:25:11;19.60;;;13.50;;
69588;SDS011;56792;50.644;17.984;2022-10-16T07:27:44;20.00;;;13.50;;
69588;SDS011;56792;50.644;17.984;2022-10-16T07:30:17;18.50;;;12.40;;
69588;SDS011;56792;50.644;17.984;2022-10-16T07:32:50;20.30;;;13.30;;
69588;SDS011;56792;50.644;17.984;2022-10-16T07:35:22;23.40;;;13.10;;
69588;SDS011;56792;50.644;17.984;2022-10-16T07:37:54;20.60;;;12.90;;
69588;SDS011;56792;50.644;17.984;2022-10-16T07:40:26;20.20;;;12.40;;
69588;SDS011;56792;50.644;17.984;2022-10-16T07:42:59;24.60;;;13.90;;
69588;SDS011;56792;50.644;17.984;2022-10-16T07:45:34;20.80;;;13.40;;
69588;SDS011;56792;50.644;17.984;2022-10-16T07:48:06;16.70;;;11.90;;
69588;SDS011;56792;50.644;17.984;2022-10-16T07:50:38;19.70;;;13.70;;
69588;SDS011;56792;50.644;17.984;2022-10-16T07:53:11;18.60;;;11.40;;
69588;SDS011;56792;50.644;17.984;2022-10-16T07:55:44;18.00;;;11.50;;
69588;SDS011;56792;50.644;17.984;2022-10-16T07:58:16;14.90;;;10.50;;
69588;SDS011;56792;50.644;17.984;2022-10-16T08:00:48;17.80;;;11.80;;
69588;SDS011;56792;50.644;17.984;2022-10-16T08:03:20;18.00;;;11.50;;
69588;SDS011;56792;50.644;17.984;2022-10-16T08:05:52;17.10;;;12.20;;
69588;SDS011;56792;50.644;17.984;2022-10-16T08:08:27;18.40;;;11.10;;
69588;SDS011;56792;50.644;17.984;2022-10-16T08:11:00;17.70;;;11.70;;
69588;SDS011;56792;50.644;17.984;2022-10-16T08:13:33;16.60;;;10.60;;
69588;SDS011;56792;50.644;17.984;2022-10-16T08:16:06;18.10;;;11.10;;
69588;SDS011;56792;50.644;17.984;2022-10-16T08:18:40;16.00;;;11.70;;
69588;SDS011;56792;50.644;17.984;2022-10-16T08:21:15;14.30;;;9.70;;
69588;SDS011;56792;50.644;17.984;2022-10-16T08:23:48;17.40;;;10.70;;
69588;SDS011;56792;50.644;17.984;2022-10-16T08:26:20;14.40;;;9.70;;
69588;SDS011;56792;50.644;17.984;2022-10-16T08:28:52;15.80;;;11.30;;
69588;SDS011;56792;50.644;17.984;2022-10-16T08:31:25;14.30;;;10.50;;
69588;SDS011;56792;50.644;17.984;2022-10-16T08:33:57;17.50;;;12.00;;
69588;SDS011;56792;50.644;17.984;2022-10-16T08:36:30;49.40;;;44.10;;
69588;SDS011;56792;50.644;17.984;2022-10-16T08:39:02;15.90;;;10.50;;
69588;SDS011;56792;50.644;17.984;2022-10-16T08:41:56;16.20;;;10.70;;
69588;SDS011;56792;50.644;17.984;2022-10-16T08:45:11;14.20;;;10.40;;
69588;SDS011;56792;50.644;17.984;2022-10-16T08:48:03;14.40;;;9.90;;
69588;SDS011;56792;50.644;17.984;2022-10-16T08:50:43;19.80;;;10.10;;
69588;SDS011;56792;50.644;17.984;2022-10-16T08:53:20;14.20;;;10.70;;
69588;SDS011;56792;50.644;17.984;2022-10-16T08:55:56;16.30;;;10.40;;
69588;SDS011;56792;50.644;17.984;2022-10-16T08:58:30;14.80;;;10.10;;
69588;SDS011;56792;50.644;17.984;2022-10-16T09:01:03;16.70;;;10.90;;
69588;SDS011;56792;50.644;17.984;2022-10-16T09:03:52;15.90;;;10.60;;
69588;SDS011;56792;50.644;17.984;2022-10-16T09:06:48;15.20;;;10.80;;
69588;SDS011;56792;50.644;17.984;2022-10-16T09:09:35;14.70;;;10.20;;
69588;SDS011;56792;50.644;17.984;2022-10-16T09:12:21;16.80;;;10.20;;
69588;SDS011;56792;50.644;17.984;2022-10-16T09:15:11;13.70;;;9.10;;
69588;SDS011;56792;50.644;17.984;2022-10-16T09:17:55;15.00;;;9.70;;
69588;SDS011;56792;50.644;17.984;2022-10-16T09:20:50;15.10;;;9.80;;
69588;SDS011;56792;50.644;17.984;2022-10-16T09:23:28;16.50;;;9.60;;
69588;SDS011;56792;50.644;17.984;2022-10-16T09:26:05;14.70;;;10.70;;
69588;SDS011;56792;50.644;17.984;2022-10-16T09:28:43;13.90;;;9.70;;
69588;SDS011;56792;50.644;17.984;2022-10-16T09:31:18;13.50;;;9.60;;
69588;SDS011;56792;50.644;17.984;2022-10-16T09:33:54;15.90;;;10.50;;
69588;SDS011;56792;50.644;17.984;2022-10-16T09:36:29;16.30;;;10.30;;
69588;SDS011;56792;50.644;17.984;2022-10-16T09:39:11;13.00;;;10.20;;
69588;SDS011;56792;50.644;17.984;2022-10-16T09:41:44;19.70;;;13.40;;
69588;SDS011;56792;50.644;17.984;2022-10-16T09:44:22;15.90;;;11.10;;
69588;SDS011;56792;50.644;17.984;2022-10-16T09:47:13;17.70;;;10.80;;
69588;SDS011;56792;50.644;17.984;2022-10-16T09:49:56;16.40;;;9.60;;
69588;SDS011;56792;50.644;17.984;2022-10-16T09:52:31;13.30;;;9.70;;
69588;SDS011;56792;50.644;17.984;2022-10-16T09:55:16;15.00;;;9.90;;
69588;SDS011;56792;50.644;17.984;2022-10-16T09:57:54;12.20;;;9.00;;
69588;SDS011;56792;50.644;17.984;2022-10-16T10:00:26;17.00;;;10.60;;
69588;SDS011;56792;50.644;17.984;2022-10-16T10:02:58;14.90;;;10.30;;
69588;SDS011;56792;50.644;17.984;2022-10-16T10:05:31;16.00;;;10.40;;
69588;SDS011;56792;50.644;17.984;2022-10-16T10:08:04;16.60;;;11.60;;
69588;SDS011;56792;50.644;17.984;2022-10-16T10:10:41;14.40;;;9.80;;
69588;SDS011;56792;50.644;17.984;2022-10-16T10:13:22;13.30;;;9.40;;
69588;SDS011;56792;50.644;17.984;2022-10-16T10:16:08;14.30;;;10.00;;
69588;SDS011;56792;50.644;17.984;2022-10-16T10:18:43;13.80;;;10.00;;
69588;SDS011;56792;50.644;17.984;2022-10-16T10:21:16;14.30;;;10.60;;
69588;SDS011;56792;50.644;17.984;2022-10-16T10:23:56;13.60;;;10.40;;
69588;SDS011;56792;50.644;17.984;2022-10-16T10:26:31;13.70;;;10.20;;
69588;SDS011;56792;50.644;17.984;2022-10-16T10:29:09;14.40;;;11.50;;
69588;SDS011;56792;50.644;17.984;2022-10-16T10:31:50;14.40;;;10.80;;
69588;SDS011;56792;50.644;17.984;2022-10-16T10:34:45;13.70;;;10.50;;
69588;SDS011;56792;50.644;17.984;2022-10-16T10:37:50;15.70;;;10.50;;
69588;SDS011;56792;50.644;17.984;2022-10-16T10:40:45;15.40;;;10.70;;
69588;SDS011;56792;50.644;17.984;2022-10-16T10:43:32;15.50;;;10.10;;
69588;SDS011;56792;50.644;17.984;2022-10-16T10:46:23;15.50;;;10.70;;
69588;SDS011;56792;50.644;17.984;2022-10-16T10:49:23;16.40;;;11.20;;
69588;SDS011;56792;50.644;17.984;2022-10-16T10:52:19;14.80;;;10.70;;
69588;SDS011;56792;50.644;17.984;2022-10-16T10:55:14;14.70;;;10.70;;
69588;SDS011;56792;50.644;17.984;2022-10-16T10:58:07;14.80;;;11.40;;
69588;SDS011;56792;50.644;17.984;2022-10-16T11:00:56;14.20;;;11.00;;
69588;SDS011;56792;50.644;17.984;2022-10-16T11:03:51;15.10;;;11.00;;
69588;SDS011;56792;50.644;17.984;2022-10-16T11:06:42;15.30;;;10.80;;
69588;SDS011;56792;50.644;17.984;2022-10-16T11:09:20;15.10;;;11.70;;
69588;SDS011;56792;50.644;17.984;2022-10-16T11:11:59;16.60;;;10.90;;
69588;SDS011;56792;50.644;17.984;2022-10-16T11:14:40;13.80;;;10.70;;
69588;SDS011;56792;50.644;17.984;2022-10-16T11:17:21;16.00;;;11.50;;
69588;SDS011;56792;50.644;17.984;2022-10-16T11:19:59;15.10;;;10.60;;
69588;SDS011;56792;50.644;17.984;2022-10-16T11:22:38;14.20;;;10.70;;
69588;SDS011;56792;50.644;17.984;2022-10-16T11:25:18;14.40;;;10.80;;
69588;SDS011;56792;50.644;17.984;2022-10-16T11:27:56;14.30;;;10.60;;
69588;SDS011;56792;50.644;17.984;2022-10-16T11:30:39;12.70;;;9.80;;
69588;SDS011;56792;50.644;17.984;2022-10-16T11:33:27;12.70;;;9.80;;
69588;SDS011;56792;50.644;17.984;2022-10-16T11:36:08;13.90;;;10.60;;
69588;SDS011;56792;50.644;17.984;2022-10-16T11:38:51;14.00;;;10.30;;
69588;SDS011;56792;50.644;17.984;2022-10-16T11:41:32;12.80;;;9.60;;
69588;SDS011;56792;50.644;17.984;2022-10-16T11:44:18;14.50;;;11.80;;
69588;SDS011;56792;50.644;17.984;2022-10-16T11:47:09;13.60;;;10.30;;
69588;SDS011;56792;50.644;17.984;2022-10-16T11:49:52;15.40;;;11.30;;
69588;SDS011;56792;50.644;17.984;2022-10-16T11:52:33;15.10;;;11.20;;
69588;SDS011;56792;50.644;17.984;2022-10-16T11:55:16;13.50;;;11.10;;
69588;SDS011;56792;50.644;17.984;2022-10-16T11:57:57;13.80;;;10.60;;
69588;SDS011;56792;50.644;17.984;2022-10-16T12:00:38;15.70;;;11.00;;
69588;SDS011;56792;50.644;17.984;2022-10-16T12:03:25;15.60;;;11.30;;
69588;SDS011;56792;50.644;17.984;2022-10-16T12:06:28;14.30;;;11.40;;
69588;SDS011;56792;50.644;17.984;2022-10-16T12:09:05;16.20;;;10.90;;
69588;SDS011;56792;50.644;17.984;2022-10-16T12:11:46;13.50;;;11.10;;
69588;SDS011;56792;50.644;17.984;2022-10-16T12:14:35;14.10;;;10.90;;
69588;SDS011;56792;50.644;17.984;2022-10-16T12:17:27;13.20;;;9.70;;
69588;SDS011;56792;50.644;17.984;2022-10-16T12:20:23;14.80;;;11.50;;
69588;SDS011;56792;50.644;17.984;2022-10-16T12:23:00;15.10;;;10.80;;
69588;SDS011;56792;50.644;17.984;2022-10-16T12:25:36;14.20;;;10.40;;
69588;SDS011;56792;50.644;17.984;2022-10-16T12:28:25;14.40;;;10.50;;
69588;SDS011;56792;50.644;17.984;2022-10-16T12:31:00;13.30;;;10.60;;
69588;SDS011;56792;50.644;17.984;2022-10-16T12:33:36;14.70;;;11.40;;
69588;SDS011;56792;50.644;17.984;2022-10-16T12:36:15;15.10;;;11.10;;
69588;SDS011;56792;50.644;17.984;2022-10-16T12:38:57;14.80;;;10.70;;
69588;SDS011;56792;50.644;17.984;2022-10-16T12:41:32;15.90;;;11.40;;
69588;SDS011;56792;50.644;17.984;2022-10-16T12:44:23;15.10;;;11.00;;
69588;SDS011;56792;50.644;17.984;2022-10-16T12:46:56;15.80;;;11.40;;
69588;SDS011;56792;50.644;17.984;2022-10-16T12:49:35;16.70;;;12.30;;
69588;SDS011;56792;50.644;17.984;2022-10-16T12:52:35;19.60;;;12.60;;
69588;SDS011;56792;50.644;17.984;2022-10-16T12:55:17;17.10;;;11.80;;
69588;SDS011;56792;50.644;17.984;2022-10-16T12:58:03;18.50;;;12.80;;
69588;SDS011;56792;50.644;17.984;2022-10-16T13:00:52;17.00;;;12.10;;
69588;SDS011;56792;50.644;17.984;2022-10-16T13:03:47;18.70;;;11.20;;
69588;SDS011;56792;50.644;17.984;2022-10-16T13:06:33;16.50;;;12.60;;
69588;SDS011;56792;50.644;17.984;2022-10-16T13:09:19;17.70;;;13.40;;
69588;SDS011;56792;50.644;17.984;2022-10-16T13:12:23;15.30;;;12.20;;
69588;SDS011;56792;50.644;17.984;2022-10-16T13:15:26;17.10;;;13.30;;
69588;SDS011;56792;50.644;17.984;2022-10-16T13:18:13;17.30;;;13.00;;
69588;SDS011;56792;50.644;17.984;2022-10-16T13:21:11;15.70;;;13.10;;
69588;SDS011;56792;50.644;17.984;2022-10-16T13:24:01;16.20;;;11.40;;
69588;SDS011;56792;50.644;17.984;2022-10-16T13:26:46;14.60;;;11.40;;
69588;SDS011;56792;50.644;17.984;2022-10-16T13:29:32;13.50;;;11.10;;
69588;SDS011;56792;50.644;17.984;2022-10-16T13:32:09;15.40;;;12.70;;
69588;SDS011;56792;50.644;17.984;2022-10-16T13:34:47;16.20;;;11.90;;
69588;SDS011;56792;50.644;17.984;2022-10-16T13:37:21;14.10;;;11.30;;
69588;SDS011;56792;50.644;17.984;2022-10-16T13:40:17;13.10;;;10.70;;
69588;SDS011;56792;50.644;17.984;2022-10-16T13:42:52;15.00;;;12.60;;
69588;SDS011;56792;50.644;17.984;2022-10-16T13:45:28;14.30;;;11.50;;
69588;SDS011;56792;50.644;17.984;2022-10-16T13:48:09;17.80;;;12.00;;
69588;SDS011;56792;50.644;17.984;2022-10-16T13:50:42;14.20;;;12.00;;
69588;SDS011;56792;50.644;17.984;2022-10-16T13:53:15;16.70;;;12.20;;
69588;SDS011;56792;50.644;17.984;2022-10-16T13:55:47;16.50;;;12.80;;
69588;SDS011;56792;50.644;17.984;2022-10-16T13:58:20;15.10;;;12.20;;
69588;SDS011;56792;50.644;17.984;2022-10-16T14:00:58;18.30;;;12.80;;
69588;SDS011;56792;50.644;17.984;2022-10-16T14:03:35;17.60;;;12.80;;
69588;SDS011;56792;50.644;17.984;2022-10-16T14:06:15;16.10;;;11.50;;
69588;SDS011;56792;50.644;17.984;2022-10-16T14:09:02;15.90;;;12.00;;
69588;SDS011;56792;50.644;17.984;2022-10-16T14:11:43;17.30;;;12.10;;
69588;SDS011;56792;50.644;17.984;2022-10-16T14:14:20;15.10;;;12.30;;
69588;SDS011;56792;50.644;17.984;2022-10-16T14:16:54;16.00;;;11.90;;
69588;SDS011;56792;50.644;17.984;2022-10-16T14:19:28;16.60;;;12.60;;
69588;SDS011;56792;50.644;17.984;2022-10-16T14:22:20;18.20;;;12.70;;
69588;SDS011;56792;50.644;17.984;2022-10-16T14:24:58;16.30;;;13.00;;
69588;SDS011;56792;50.644;17.984;2022-10-16T14:27:34;18.50;;;12.30;;
69588;SDS011;56792;50.644;17.984;2022-10-16T14:30:24;16.70;;;12.90;;
69588;SDS011;56792;50.644;17.984;2022-10-16T14:33:01;18.70;;;12.70;;
69588;SDS011;56792;50.644;17.984;2022-10-16T14:35:36;18.40;;;13.00;;
69588;SDS011;56792;50.644;17.984;2022-10-16T14:38:20;17.60;;;13.30;;
69588;SDS011;56792;50.644;17.984;2022-10-16T14:40:52;18.90;;;13.10;;
69588;SDS011;56792;50.644;17.984;2022-10-16T14:43:31;16.60;;;12.80;;
69588;SDS011;56792;50.644;17.984;2022-10-16T14:46:08;16.60;;;13.40;;
69588;SDS011;56792;50.644;17.984;2022-10-16T14:48:46;18.70;;;11.90;;
69588;SDS011;56792;50.644;17.984;2022-10-16T14:51:21;16.20;;;12.60;;
69588;SDS011;56792;50.644;17.984;2022-10-16T14:53:54;18.10;;;12.90;;
69588;SDS011;56792;50.644;17.984;2022-10-16T14:56:30;18.10;;;13.20;;
69588;SDS011;56792;50.644;17.984;2022-10-16T14:59:05;18.40;;;13.10;;
69588;SDS011;56792;50.644;17.984;2022-10-16T15:01:44;18.50;;;13.60;;
69588;SDS011;56792;50.644;17.984;2022-10-16T15:04:17;19.30;;;13.50;;
69588;SDS011;56792;50.644;17.984;2022-10-16T15:06:49;16.80;;;13.10;;
69588;SDS011;56792;50.644;17.984;2022-10-16T15:09:23;17.60;;;13.30;;